Time;durP1;ratioP1;P1;durP2;ratioP2;P2;SDS_P1;SDS_P2;PMS_P1;PMS_P2;Temp;Humidity;BMP_temperature;BMP_pressure;BME280_temperature;BME280_humidity;BME280_pressure;Samples;Min_cycle;Max_cycle;Signal;HPM_P1;HPM_P2
2021/11/01 00:02:14;;;;;;;16.73;3.77;;;;;;;;;;5038209;28;20229;-75
2021/11/01 00:04:43;;;;;;;19.17;3.57;;;;;;;;;;5037959;28;20287;-74
2021/11/01 00:07:09;;;;;;;18.57;3.97;;;;;;;;;;5039045;28;20225;-75
2021/11/01 00:09:36;;;;;;;14.50;3.20;;;;;;;;;;5038458;28;20272;-74
2021/11/01 00:12:03;;;;;;;16.67;3.70;;;;;;;;;;5037562;28;20212;-74
2021/11/01 00:14:29;;;;;;;15.43;3.27;;;;;;;;;;5038313;28;20294;-74
2021/11/01 00:16:58;;;;;;;17.20;3.73;;;;;;;;;;5039462;28;20244;-75
2021/11/01 00:19:26;;;;;;;12.00;3.60;;;;;;;;;;5037097;28;20233;-75
2021/11/01 00:21:53;;;;;;;14.43;3.47;;;;;;;;;;5040372;28;20902;-75
2021/11/01 00:24:19;;;;;;;14.13;3.13;;;;;;;;;;5040867;28;20279;-75
2021/11/01 00:26:46;;;;;;;13.13;3.37;;;;;;;;;;5040380;28;20740;-75
2021/11/01 00:29:13;;;;;;;16.27;3.47;;;;;;;;;;5039179;28;20327;-76
2021/11/01 00:31:39;;;;;;;14.13;3.20;;;;;;;;;;5039999;28;20240;-75
2021/11/01 00:34:07;;;;;;;13.40;2.80;;;;;;;;;;5038367;28;20283;-75
2021/11/01 00:36:33;;;;;;;13.60;3.83;;;;;;;;;;5037490;28;20731;-75
2021/11/01 00:39:00;;;;;;;12.93;3.30;;;;;;;;;;5041043;28;20224;-75
2021/11/01 00:41:26;;;;;;;15.90;3.20;;;;;;;;;;5039707;28;20923;-75
2021/11/01 00:43:53;;;;;;;12.53;2.60;;;;;;;;;;5038238;28;20210;-74
2021/11/01 00:46:19;;;;;;;12.43;3.43;;;;;;;;;;5038307;28;20269;-74
2021/11/01 00:48:46;;;;;;;14.10;3.60;;;;;;;;;;5038129;28;20290;-75
2021/11/01 00:51:13;;;;;;;12.77;3.33;;;;;;;;;;5039763;28;20293;-75
2021/11/01 00:53:47;;;;;;;10.47;3.07;;;;;;;;;;5038003;28;20511;-75
2021/11/01 00:56:14;;;;;;;10.83;2.50;;;;;;;;;;5039769;28;20227;-75
2021/11/01 00:58:41;;;;;;;12.23;2.77;;;;;;;;;;5040409;28;20217;-74
2021/11/01 01:01:08;;;;;;;11.30;2.77;;;;;;;;;;5040196;28;20225;-75
2021/11/01 01:03:35;;;;;;;12.73;2.90;;;;;;;;;;5041459;28;20239;-75
2021/11/01 01:06:03;;;;;;;8.80;2.57;;;;;;;;;;5038650;28;20237;-75
2021/11/01 01:08:31;;;;;;;11.37;2.60;;;;;;;;;;5037670;28;20244;-75
2021/11/01 01:10:57;;;;;;;11.27;2.93;;;;;;;;;;5037750;28;20238;-74
2021/11/01 01:13:27;;;;;;;11.53;2.90;;;;;;;;;;5040979;28;20263;-75
2021/11/01 01:15:58;;;;;;;14.60;2.63;;;;;;;;;;5038333;28;20225;-74
2021/11/01 01:18:28;;;;;;;17.20;3.60;;;;;;;;;;5039676;28;20242;-75
2021/11/01 01:20:56;;;;;;;12.63;3.67;;;;;;;;;;5038767;28;20265;-74
2021/11/01 01:23:23;;;;;;;17.43;3.50;;;;;;;;;;5038165;28;20318;-75
2021/11/01 01:25:57;;;;;;;12.43;2.80;;;;;;;;;;5038240;28;20213;-75
2021/11/01 01:28:25;;;;;;;16.53;3.50;;;;;;;;;;5036944;28;20219;-75
2021/11/01 01:30:52;;;;;;;13.33;3.87;;;;;;;;;;5039824;28;20824;-75
2021/11/01 01:33:18;;;;;;;12.67;2.80;;;;;;;;;;5039193;28;20211;-75
2021/11/01 01:35:45;;;;;;;10.97;3.10;;;;;;;;;;5038942;28;20232;-75
2021/11/01 01:38:13;;;;;;;16.90;4.00;;;;;;;;;;5040468;28;20214;-75
2021/11/01 01:40:40;;;;;;;11.70;2.73;;;;;;;;;;5037907;28;20216;-75
2021/11/01 01:43:08;;;;;;;13.90;3.63;;;;;;;;;;5038260;28;20716;-75
2021/11/01 01:45:36;;;;;;;9.77;3.43;;;;;;;;;;5035665;28;20213;-74
2021/11/01 01:48:03;;;;;;;17.30;3.80;;;;;;;;;;5039058;28;20225;-75
2021/11/01 01:50:29;;;;;;;15.17;2.93;;;;;;;;;;5037658;28;20237;-75
2021/11/01 01:52:56;;;;;;;7.43;3.10;;;;;;;;;;5037999;28;20282;-75
2021/11/01 01:55:23;;;;;;;12.33;2.80;;;;;;;;;;5036198;28;20217;-75
2021/11/01 01:57:52;;;;;;;13.73;3.47;;;;;;;;;;5036980;28;20221;-75
2021/11/01 02:00:34;;;;;;;13.37;3.23;;;;;;;;;;5036868;28;20293;-75
2021/11/01 02:03:01;;;;;;;13.40;2.93;;;;;;;;;;5036416;28;20204;-75
2021/11/01 02:05:35;;;;;;;8.20;2.77;;;;;;;;;;5036291;28;20739;-75
2021/11/01 02:08:07;;;;;;;15.63;3.23;;;;;;;;;;5038251;28;20252;-75
2021/11/01 02:10:42;;;;;;;13.50;3.03;;;;;;;;;;5037489;28;20223;-75
2021/11/01 02:13:15;;;;;;;11.57;2.97;;;;;;;;;;5036896;28;20221;-75
2021/11/01 02:15:48;;;;;;;16.30;3.37;;;;;;;;;;5039825;28;20795;-75
2021/11/01 02:18:15;;;;;;;14.93;3.30;;;;;;;;;;5039043;28;20224;-75
2021/11/01 02:20:53;;;;;;;14.13;2.83;;;;;;;;;;5036905;28;20530;-76
2021/11/01 02:23:25;;;;;;;9.70;3.03;;;;;;;;;;5037269;28;20632;-75
2021/11/01 02:25:55;;;;;;;9.07;2.30;;;;;;;;;;5038369;28;20663;-75
2021/11/01 02:28:25;;;;;;;8.10;2.30;;;;;;;;;;5037186;28;20641;-75
2021/11/01 02:30:53;;;;;;;13.17;2.60;;;;;;;;;;5037245;28;20697;-76
2021/11/01 02:33:21;;;;;;;8.67;2.97;;;;;;;;;;5036370;28;20209;-75
2021/11/01 02:35:50;;;;;;;11.63;2.57;;;;;;;;;;5035810;28;20208;-76
2021/11/01 02:38:19;;;;;;;11.67;2.70;;;;;;;;;;5036693;28;20838;-76
2021/11/01 02:40:45;;;;;;;12.40;3.07;;;;;;;;;;5037135;28;20215;-76
2021/11/01 02:43:14;;;;;;;9.77;2.80;;;;;;;;;;5037662;28;20213;-75
2021/11/01 02:45:42;;;;;;;8.17;1.97;;;;;;;;;;5037356;28;20304;-76
2021/11/01 02:48:08;;;;;;;9.70;2.00;;;;;;;;;;5035121;28;20262;-75
2021/11/01 02:50:36;;;;;;;14.13;2.60;;;;;;;;;;5036879;28;20853;-76
2021/11/01 02:53:03;;;;;;;11.17;2.50;;;;;;;;;;5036529;28;20214;-76
2021/11/01 02:55:30;;;;;;;10.73;2.23;;;;;;;;;;5036707;28;20685;-76
2021/11/01 02:57:57;;;;;;;12.67;2.60;;;;;;;;;;5037231;28;20218;-76
2021/11/01 03:00:28;;;;;;;12.23;2.63;;;;;;;;;;5035379;28;20400;-76
2021/11/01 03:02:55;;;;;;;9.73;2.10;;;;;;;;;;5038721;28;20211;-76
2021/11/01 03:05:25;;;;;;;7.93;2.43;;;;;;;;;;5037738;28;20306;-75
2021/11/01 03:07:53;;;;;;;12.43;2.20;;;;;;;;;;5036043;28;20805;-76
2021/11/01 03:10:21;;;;;;;9.30;2.30;;;;;;;;;;5036770;28;20641;-76
2021/11/01 03:12:49;;;;;;;8.73;2.23;;;;;;;;;;5039116;28;20274;-76
2021/11/01 03:15:21;;;;;;;9.73;2.27;;;;;;;;;;5037970;28;20231;-76
2021/11/01 03:17:50;;;;;;;11.90;2.53;;;;;;;;;;5037832;28;20217;-76
2021/11/01 03:20:20;;;;;;;13.30;2.20;;;;;;;;;;5036445;28;20240;-76
2021/11/01 03:22:49;;;;;;;9.70;1.87;;;;;;;;;;5039026;28;20599;-76
2021/11/01 03:25:30;;;;;;;6.80;1.60;;;;;;;;;;5037691;28;20305;-76
2021/11/01 03:28:01;;;;;;;9.30;2.17;;;;;;;;;;5034333;28;20218;-76
2021/11/01 03:30:27;;;;;;;11.03;2.73;;;;;;;;;;5035322;28;20554;-75
2021/11/01 03:32:57;;;;;;;10.27;1.97;;;;;;;;;;5034424;28;20276;-76
2021/11/01 03:35:25;;;;;;;6.90;1.93;;;;;;;;;;5037273;28;20228;-76
2021/11/01 03:37:54;;;;;;;10.50;2.23;;;;;;;;;;5034615;28;20226;-76
2021/11/01 03:40:22;;;;;;;7.23;2.27;;;;;;;;;;5037488;28;20358;-76
2021/11/01 03:42:52;;;;;;;7.90;1.87;;;;;;;;;;5039537;28;20243;-75
2021/11/01 03:45:20;;;;;;;6.70;1.60;;;;;;;;;;5038101;28;20280;-76
2021/11/01 03:47:48;;;;;;;6.53;2.00;;;;;;;;;;5035777;28;20220;-76
2021/11/01 03:50:29;;;;;;;7.20;2.83;;;;;;;;;;5037415;28;20300;-76
2021/11/01 03:52:56;;;;;;;8.07;3.10;;;;;;;;;;5035966;28;20366;-76
2021/11/01 03:55:28;;;;;;;10.47;3.90;;;;;;;;;;5035896;28;20216;-76
2021/11/01 03:57:55;;;;;;;6.40;2.60;;;;;;;;;;5037923;28;20765;-77
2021/11/01 04:00:24;;;;;;;6.27;1.83;;;;;;;;;;5036564;28;20278;-76
2021/11/01 04:02:50;;;;;;;5.20;1.73;;;;;;;;;;5036623;28;20215;-77
2021/11/01 04:05:18;;;;;;;4.60;1.80;;;;;;;;;;5034021;28;20278;-76
2021/11/01 04:07:45;;;;;;;5.53;1.40;;;;;;;;;;5035043;28;20218;-76
2021/11/01 04:10:12;;;;;;;5.03;2.37;;;;;;;;;;5039079;28;20238;-76
2021/11/01 04:12:38;;;;;;;8.33;2.97;;;;;;;;;;5040263;28;20238;-76
2021/11/01 04:15:09;;;;;;;6.43;1.60;;;;;;;;;;5039118;28;20326;-76
2021/11/01 04:17:41;;;;;;;8.53;2.20;;;;;;;;;;5037710;28;20261;-76
2021/11/01 04:20:26;;;;;;;6.97;2.07;;;;;;;;;;5041825;28;20224;-75
2021/11/01 04:22:58;;;;;;;8.13;2.63;;;;;;;;;;5038563;28;20285;-76
2021/11/01 04:25:27;;;;;;;5.07;1.53;;;;;;;;;;5039662;28;20218;-75
2021/11/01 04:27:54;;;;;;;5.70;1.60;;;;;;;;;;5042273;28;20303;-76
2021/11/01 04:30:21;;;;;;;8.20;2.40;;;;;;;;;;5041968;28;20207;-76
2021/11/01 04:32:52;;;;;;;11.13;2.17;;;;;;;;;;5040433;28;20226;-76
2021/11/01 04:35:22;;;;;;;10.90;2.43;;;;;;;;;;5040552;28;20254;-76
2021/11/01 04:37:52;;;;;;;8.07;2.07;;;;;;;;;;5037375;28;20209;-76
2021/11/01 04:40:34;;;;;;;8.37;1.93;;;;;;;;;;5041498;28;20628;-76
2021/11/01 04:53:54;;;;;;;7.17;2.10;;;;;;;;;;5039287;28;20302;-75
2021/11/01 04:56:25;;;;;;;9.90;2.40;;;;;;;;;;5041448;28;20210;-75
2021/11/01 04:58:53;;;;;;;8.07;2.33;;;;;;;;;;5037137;28;21034;-75
2021/11/01 05:01:22;;;;;;;5.13;2.27;;;;;;;;;;5036449;28;20296;-75
2021/11/01 05:03:51;;;;;;;6.87;1.90;;;;;;;;;;5040849;28;20234;-76
2021/11/01 05:06:21;;;;;;;6.33;2.20;;;;;;;;;;5039288;28;20252;-75
2021/11/01 05:08:51;;;;;;;11.53;3.00;;;;;;;;;;5037805;28;20689;-75
2021/11/01 05:11:28;;;;;;;7.63;2.50;;;;;;;;;;5038379;28;20228;-76
2021/11/01 05:13:58;;;;;;;10.33;2.63;;;;;;;;;;5036662;28;20325;-75
2021/11/01 05:16:33;;;;;;;7.23;2.17;;;;;;;;;;5036997;28;20214;-76
2021/11/01 05:19:07;;;;;;;13.63;2.80;;;;;;;;;;5037883;28;20252;-75
2021/11/01 05:21:37;;;;;;;8.50;2.80;;;;;;;;;;5038927;28;20218;-76
2021/11/01 05:24:07;;;;;;;7.87;2.20;;;;;;;;;;5039500;28;20224;-76
2021/11/01 05:26:52;;;;;;;7.70;2.43;;;;;;;;;;5038017;28;20216;-76
2021/11/01 05:29:20;;;;;;;7.30;2.17;;;;;;;;;;5037751;28;20308;-76
2021/11/01 05:31:54;;;;;;;10.73;3.08;;;;;;;;;;5038677;28;20545;-77
2021/11/01 05:34:21;;;;;;;13.07;2.27;;;;;;;;;;5040235;28;20694;-78
2021/11/01 05:36:47;;;;;;;5.73;2.27;;;;;;;;;;5038322;28;20222;-77
2021/11/01 05:39:14;;;;;;;17.63;2.73;;;;;;;;;;5038452;28;20784;-77
2021/11/01 05:41:41;;;;;;;7.23;2.13;;;;;;;;;;5035961;28;20277;-77
2021/11/01 05:44:08;;;;;;;11.67;2.73;;;;;;;;;;5038842;28;20216;-77
2021/11/01 05:46:38;;;;;;;8.13;2.70;;;;;;;;;;5037981;28;20691;-77
2021/11/01 05:49:07;;;;;;;9.90;2.73;;;;;;;;;;5037637;28;20261;-77
2021/11/01 05:51:36;;;;;;;6.67;2.17;;;;;;;;;;5040105;28;20236;-77
2021/11/01 05:54:06;;;;;;;12.97;2.80;;;;;;;;;;5038580;28;20698;-77
2021/11/01 05:56:38;;;;;;;9.33;2.10;;;;;;;;;;5037537;28;20212;-77
2021/11/01 06:04:56;;;;;;;7.30;2.37;;;;;;;;;;4965185;28;20735;-77
2021/11/01 06:07:36;;;;;;;8.33;2.00;;;;;;;;;;5022535;28;20244;-77
2021/11/01 06:10:08;;;;;;;8.43;2.43;;;;;;;;;;5037204;28;20266;-77
2021/11/01 06:15:19;;;;;;;8.60;2.90;;;;;;;;;;5038265;28;20769;-76
2021/11/01 06:17:47;;;;;;;7.03;2.10;;;;;;;;;;5036721;28;20204;-77
2021/11/01 06:20:13;;;;;;;9.67;2.53;;;;;;;;;;5036721;28;20594;-76
2021/11/01 06:22:41;;;;;;;12.57;2.90;;;;;;;;;;5037225;28;20809;-77
2021/11/01 06:25:10;;;;;;;8.40;3.27;;;;;;;;;;5036697;28;20856;-77
2021/11/01 06:27:38;;;;;;;6.33;2.40;;;;;;;;;;5036714;28;20221;-77
2021/11/01 06:30:12;;;;;;;11.10;2.70;;;;;;;;;;5035001;28;20208;-76
2021/11/01 06:32:43;;;;;;;9.47;2.80;;;;;;;;;;5033779;28;20310;-76
2021/11/01 06:41:16;;;;;;;7.70;2.43;;;;;;;;;;5038746;28;20266;-76
2021/11/01 06:43:58;;;;;;;9.43;2.73;;;;;;;;;;5036972;28;20223;-77
2021/11/01 06:52:01;;;;;;;12.47;3.90;;;;;;;;;;5036081;28;20328;-76
2021/11/01 06:57:28;;;;;;;7.10;3.10;;;;;;;;;;5023511;28;20223;-76
2021/11/01 07:16:28;;;;;;;8.43;2.67;;;;;;;;;;5034448;28;20235;-76
2021/11/01 07:18:59;;;;;;;7.50;2.77;;;;;;;;;;5036913;28;20214;-75
2021/11/01 07:21:40;;;;;;;8.70;2.90;;;;;;;;;;5035303;28;20303;-76
2021/11/01 08:22:00;;;;;;;8.17;3.27;;;;;;;;;;5036584;28;20278;-76
2021/11/01 08:34:11;;;;;;;10.30;3.77;;;;;;;;;;5016289;28;20528;-77
2021/11/01 08:36:18;;;;;;;10.20;3.67;;;;;;;;;;5038077;28;20317;-76
2021/11/01 08:39:05;;;;;;;5.43;3.00;;;;;;;;;;5035722;28;20310;-76
2021/11/01 08:41:58;;;;;;;8.40;2.87;;;;;;;;;;5038086;28;20301;-76
2021/11/01 09:03:53;;;;;;;8.23;3.27;;;;;;;;;;5037279;28;20231;-76
2021/11/01 09:06:40;;;;;;;10.10;3.40;;;;;;;;;;5039477;28;20272;-75
2021/11/01 09:20:05;;;;;;;5.67;2.57;;;;;;;;;;5036369;28;20329;-77
2021/11/01 09:22:54;;;;;;;7.27;2.43;;;;;;;;;;5036730;28;20205;-76
2021/11/01 09:25:29;;;;;;;11.33;3.03;;;;;;;;;;5037233;28;20298;-77
2021/11/01 09:28:03;;;;;;;11.57;2.97;;;;;;;;;;5036611;28;20701;-76
2021/11/01 09:36:12;;;;;;;8.80;2.63;;;;;;;;;;5036520;28;20636;-75
2021/11/01 09:41:22;;;;;;;12.13;3.00;;;;;;;;;;5033873;28;20294;-76
2021/11/01 09:43:51;;;;;;;6.13;2.33;;;;;;;;;;5036654;28;20208;-74
2021/11/01 09:46:19;;;;;;;10.83;3.23;;;;;;;;;;5036379;28;20213;-75
2021/11/01 09:48:46;;;;;;;6.13;1.90;;;;;;;;;;5038227;28;20294;-77
2021/11/01 09:51:14;;;;;;;7.57;2.20;;;;;;;;;;5036232;28;20205;-76
2021/11/01 09:53:43;;;;;;;5.93;2.17;;;;;;;;;;5036297;28;20230;-76
2021/11/01 09:59:12;;;;;;;6.33;2.60;;;;;;;;;;5037080;28;20216;-76
2021/11/01 10:01:43;;;;;;;8.27;2.57;;;;;;;;;;5037006;28;20608;-76
2021/11/01 10:04:15;;;;;;;8.63;2.80;;;;;;;;;;5036732;28;20225;-77
2021/11/01 10:06:43;;;;;;;6.77;2.40;;;;;;;;;;5034819;28;20237;-76
2021/11/01 10:09:13;;;;;;;6.60;2.70;;;;;;;;;;5036417;28;20266;-77
2021/11/01 10:11:44;;;;;;;8.03;2.67;;;;;;;;;;5035806;28;20223;-76
2021/11/01 10:14:11;;;;;;;9.27;2.90;;;;;;;;;;5038196;28;20213;-76
2021/11/01 10:19:29;;;;;;;4.33;1.80;;;;;;;;;;5033830;28;20246;-76
2021/11/01 10:21:59;;;;;;;9.83;2.27;;;;;;;;;;5037464;28;20280;-76
2021/11/01 10:24:28;;;;;;;10.13;2.73;;;;;;;;;;5035243;28;20226;-76
2021/11/01 10:26:57;;;;;;;5.90;2.10;;;;;;;;;;5035916;28;20214;-78
2021/11/01 10:29:23;;;;;;;7.90;2.23;;;;;;;;;;5034863;28;20551;-77
2021/11/01 10:31:50;;;;;;;6.87;2.20;;;;;;;;;;5035356;28;20741;-77
2021/11/01 10:34:18;;;;;;;3.77;1.90;;;;;;;;;;5035497;28;20241;-76
2021/11/01 10:36:48;;;;;;;5.67;1.70;;;;;;;;;;5034656;28;20222;-77
2021/11/01 10:39:21;;;;;;;5.97;1.67;;;;;;;;;;5037081;28;20233;-77
2021/11/01 10:41:54;;;;;;;9.10;1.77;;;;;;;;;;5036245;28;20306;-77
2021/11/01 10:44:45;;;;;;;8.00;1.70;;;;;;;;;;5035990;28;20234;-76
2021/11/01 10:47:38;;;;;;;6.53;1.90;;;;;;;;;;5037522;28;20221;-78
2021/11/01 11:12:59;;;;;;;5.03;1.47;;;;;;;;;;4961543;28;20291;-77
2021/11/01 11:15:27;;;;;;;4.13;1.57;;;;;;;;;;5021063;28;20222;-77
2021/11/01 11:18:07;;;;;;;3.93;1.67;;;;;;;;;;5034683;28;20214;-77
2021/11/01 11:20:54;;;;;;;4.17;1.43;;;;;;;;;;5038477;28;20908;-77
2021/11/01 11:26:15;;;;;;;3.73;1.27;;;;;;;;;;5019158;28;20807;-76
2021/11/01 11:37:57;;;;;;;4.03;1.10;;;;;;;;;;5038359;28;20784;-76
2021/11/01 11:43:30;;;;;;;4.13;1.10;;;;;;;;;;5046356;28;20291;-79
2021/11/01 11:48:47;;;;;;;4.97;1.27;;;;;;;;;;5037810;28;20645;-76
2021/11/01 11:51:14;;;;;;;3.67;1.00;;;;;;;;;;5040347;28;20250;-76
2021/11/01 11:53:51;;;;;;;4.77;1.47;;;;;;;;;;5040333;28;20227;-76
2021/11/01 11:56:19;;;;;;;6.23;1.90;;;;;;;;;;5037215;28;20284;-76
2021/11/01 11:58:50;;;;;;;3.33;1.20;;;;;;;;;;5038954;28;20573;-77
2021/11/01 12:01:26;;;;;;;6.33;1.97;;;;;;;;;;5047415;28;20756;-78
2021/11/01 12:03:53;;;;;;;5.57;1.57;;;;;;;;;;5048015;28;20246;-78
2021/11/01 12:06:22;;;;;;;2.90;1.70;;;;;;;;;;5040157;28;20234;-77
2021/11/01 12:08:55;;;;;;;3.10;1.20;;;;;;;;;;5040014;28;20235;-76
2021/11/01 12:11:34;;;;;;;7.27;1.93;;;;;;;;;;5049841;28;20277;-78
2021/11/01 12:17:08;;;;;;;4.87;1.87;;;;;;;;;;5051530;28;20233;-77
2021/11/01 12:19:41;;;;;;;4.17;1.40;;;;;;;;;;5049940;28;20776;-79
2021/11/01 12:22:13;;;;;;;5.93;1.77;;;;;;;;;;5048434;28;20218;-78
2021/11/01 12:24:47;;;;;;;5.20;1.40;;;;;;;;;;5047805;28;20235;-80
2021/11/01 12:27:14;;;;;;;4.40;1.73;;;;;;;;;;5036312;28;20789;-76
2021/11/01 12:29:41;;;;;;;3.03;1.40;;;;;;;;;;5035799;28;20215;-76
2021/11/01 12:32:12;;;;;;;5.30;1.63;;;;;;;;;;5037045;28;20562;-76
2021/11/01 12:34:52;;;;;;;4.57;2.17;;;;;;;;;;5038070;28;20359;-76
2021/11/01 12:37:22;;;;;;;2.47;1.83;;;;;;;;;;5038077;28;20261;-77
2021/11/01 12:39:51;;;;;;;5.67;1.87;;;;;;;;;;5037051;28;20223;-76
2021/11/01 12:42:33;;;;;;;4.87;2.27;;;;;;;;;;5038293;28;20501;-76
2021/11/01 12:59:00;;;;;;;2.90;1.60;;;;;;;;;;4971931;28;20585;-79
2021/11/01 13:01:29;;;;;;;4.27;2.00;;;;;;;;;;5013939;28;20210;-79
2021/11/01 13:04:08;;;;;;;8.33;2.10;;;;;;;;;;5052861;28;20265;-78
2021/11/01 13:06:46;;;;;;;6.30;1.70;;;;;;;;;;5050772;28;20276;-78
2021/11/01 13:09:21;;;;;;;5.37;1.77;;;;;;;;;;5047905;28;20235;-78
2021/11/01 13:12:09;;;;;;;6.33;1.80;;;;;;;;;;5048891;28;20291;-78
2021/11/01 13:17:54;;;;;;;5.90;2.40;;;;;;;;;;5023244;28;20242;-78
2021/11/01 13:20:24;;;;;;;6.40;1.80;;;;;;;;;;5052488;28;20245;-79
2021/11/01 13:22:55;;;;;;;6.00;1.67;;;;;;;;;;5051870;28;20207;-79
2021/11/01 13:25:26;;;;;;;4.17;1.83;;;;;;;;;;5051683;28;20246;-78
2021/11/01 13:28:02;;;;;;;4.13;1.70;;;;;;;;;;5039982;28;20195;-76
2021/11/01 13:36:28;;;;;;;4.30;2.20;;;;;;;;;;5049207;28;20230;-79
2021/11/01 13:39:00;;;;;;;3.17;1.50;;;;;;;;;;5049589;28;20289;-79
2021/11/01 13:41:28;;;;;;;4.93;1.90;;;;;;;;;;5050703;28;20280;-79
2021/11/01 13:44:06;;;;;;;5.60;1.97;;;;;;;;;;5052620;28;20202;-79
2021/11/01 13:46:32;;;;;;;6.40;1.90;;;;;;;;;;5051389;28;20219;-78
2021/11/01 13:48:59;;;;;;;4.97;1.40;;;;;;;;;;5052831;28;20228;-79
2021/11/01 13:51:32;;;;;;;5.87;2.10;;;;;;;;;;5050080;28;20244;-79
2021/11/01 13:54:05;;;;;;;3.73;1.93;;;;;;;;;;5054326;28;20615;-78
2021/11/01 13:56:38;;;;;;;8.67;2.00;;;;;;;;;;5055783;28;20215;-79
2021/11/01 13:59:20;;;;;;;3.60;1.60;;;;;;;;;;5050829;28;20217;-79
2021/11/01 14:02:04;;;;;;;4.07;1.67;;;;;;;;;;5052105;28;20198;-78
2021/11/01 14:12:50;;;;;;;4.00;1.77;;;;;;;;;;5050108;28;20225;-79
2021/11/01 14:15:43;;;;;;;6.37;1.80;;;;;;;;;;5049557;28;20393;-79
2021/11/01 14:18:34;;;;;;;7.33;1.93;;;;;;;;;;5048574;28;20760;-79
2021/11/01 14:29:21;;;;;;;6.37;2.03;;;;;;;;;;5037728;28;20328;-76
2021/11/01 15:16:21;;;;;;;10.87;2.27;;;;;;;;;;5035081;28;20264;-76
2021/11/01 15:21:33;;;;;;;4.50;1.73;;;;;;;;;;5027188;28;20216;-76
2021/11/01 15:32:44;;;;;;;5.33;2.00;;;;;;;;;;5035109;28;20617;-75
2021/11/01 15:38:16;;;;;;;8.27;2.50;;;;;;;;;;5000831;28;20850;-76
2021/11/01 15:41:14;;;;;;;8.00;2.53;;;;;;;;;;5043651;28;20594;-79
2021/11/01 16:17:10;;;;;;;6.00;2.53;;;;;;;;;;5039646;28;20715;-76
2021/11/01 16:19:40;;;;;;;6.47;2.60;;;;;;;;;;5046826;28;20249;-77
2021/11/01 16:22:08;;;;;;;6.30;2.37;;;;;;;;;;5039622;28;20218;-76
2021/11/01 16:24:36;;;;;;;8.73;2.60;;;;;;;;;;5042845;28;20233;-79
2021/11/01 16:27:03;;;;;;;8.63;2.40;;;;;;;;;;5048844;28;20709;-80
2021/11/01 16:29:40;;;;;;;8.50;3.10;;;;;;;;;;5039037;28;20222;-78
2021/11/01 16:32:12;;;;;;;9.20;2.53;;;;;;;;;;5037951;28;20338;-77
2021/11/01 16:34:40;;;;;;;8.97;3.07;;;;;;;;;;5038476;28;20252;-77
2021/11/01 16:37:21;;;;;;;3.53;2.30;;;;;;;;;;5042994;28;20258;-78
2021/11/01 16:39:48;;;;;;;5.50;2.20;;;;;;;;;;5045932;28;20224;-78
2021/11/01 16:42:16;;;;;;;7.20;2.53;;;;;;;;;;5041060;28;20302;-78
2021/11/01 16:44:43;;;;;;;7.97;2.97;;;;;;;;;;5041123;28;20213;-78
2021/11/01 16:47:10;;;;;;;5.50;2.63;;;;;;;;;;5040018;28;20227;-77
2021/11/01 16:49:37;;;;;;;7.67;3.00;;;;;;;;;;5040902;28;20224;-77
2021/11/01 16:52:12;;;;;;;5.70;2.80;;;;;;;;;;5037131;28;20228;-77
2021/11/01 16:54:41;;;;;;;7.43;3.30;;;;;;;;;;5034587;28;21130;-77
2021/11/01 16:57:17;;;;;;;4.53;2.63;;;;;;;;;;5035771;28;20223;-77
2021/11/01 16:59:49;;;;;;;5.93;2.50;;;;;;;;;;5040624;28;20212;-77
2021/11/01 17:02:38;;;;;;;7.13;2.57;;;;;;;;;;5038776;28;20224;-77
2021/11/01 17:05:14;;;;;;;8.07;2.90;;;;;;;;;;5037747;28;20232;-77
2021/11/01 17:07:57;;;;;;;6.87;2.70;;;;;;;;;;5036135;28;20664;-77
2021/11/01 17:10:48;;;;;;;4.67;2.00;;;;;;;;;;5038833;28;20696;-77
2021/11/01 17:21:47;;;;;;;2.40;1.10;;;;;;;;;;5039029;28;20260;-79
2021/11/01 17:24:19;;;;;;;1.93;0.90;;;;;;;;;;5040735;28;20320;-79
2021/11/01 17:27:15;;;;;;;1.70;0.80;;;;;;;;;;5044662;28;20227;-79
2021/11/01 18:39:47;;;;;;;3.50;1.67;;;;;;;;;;5010102;28;20649;-77
2021/11/01 18:42:27;;;;;;;3.57;2.10;;;;;;;;;;5035947;28;20208;-77
2021/11/01 18:45:14;;;;;;;2.73;1.70;;;;;;;;;;5037828;28;20204;-76
2021/11/01 18:50:52;;;;;;;2.60;2.40;;;;;;;;;;5036491;28;20226;-77
2021/11/01 18:53:24;;;;;;;3.33;2.60;;;;;;;;;;5040334;28;20323;-79
2021/11/01 18:55:53;;;;;;;3.07;2.47;;;;;;;;;;5040623;28;20239;-77
2021/11/01 18:58:23;;;;;;;2.70;2.40;;;;;;;;;;5036417;28;20212;-77
2021/11/01 19:00:50;;;;;;;2.40;2.20;;;;;;;;;;5034745;28;20211;-77
2021/11/01 19:03:21;;;;;;;3.60;2.40;;;;;;;;;;5037315;28;20208;-77
2021/11/01 19:05:56;;;;;;;3.03;2.30;;;;;;;;;;5038001;28;20235;-79
2021/11/01 19:08:29;;;;;;;3.97;2.23;;;;;;;;;;5036935;28;20232;-79
2021/11/01 20:04:05;;;;;;;5.67;2.40;;;;;;;;;;5037835;28;20335;-77
2021/11/01 20:12:33;;;;;;;3.53;2.47;;;;;;;;;;5029235;28;20261;-78
2021/11/01 20:15:30;;;;;;;3.43;2.70;;;;;;;;;;5069041;28;20628;-78
2021/11/01 21:27:21;;;;;;;5.00;3.10;;;;;;;;;;5047543;28;20249;-74
2021/11/01 21:29:48;;;;;;;4.33;3.30;;;;;;;;;;5054285;28;20273;-74
2021/11/01 21:32:16;;;;;;;5.57;3.70;;;;;;;;;;5054088;28;21155;-74
2021/11/01 21:34:53;;;;;;;3.93;3.07;;;;;;;;;;5056118;28;21008;-74
2021/11/01 21:37:20;;;;;;;3.83;3.30;;;;;;;;;;5055069;28;20737;-74
2021/11/01 21:39:46;;;;;;;4.77;4.00;;;;;;;;;;5056312;28;20223;-74
2021/11/01 21:42:13;;;;;;;6.70;4.47;;;;;;;;;;5057299;28;20214;-74
2021/11/01 21:44:39;;;;;;;7.27;4.60;;;;;;;;;;5056205;28;20241;-74
2021/11/01 21:47:06;;;;;;;6.30;4.33;;;;;;;;;;5055678;28;20211;-74
2021/11/01 21:49:34;;;;;;;6.27;4.43;;;;;;;;;;5056402;28;20260;-74
2021/11/01 21:52:00;;;;;;;7.00;4.93;;;;;;;;;;5053569;28;20214;-74
2021/11/01 21:54:29;;;;;;;5.53;4.40;;;;;;;;;;5054750;28;20296;-74
2021/11/01 21:57:01;;;;;;;6.27;4.67;;;;;;;;;;5056229;28;20260;-74
2021/11/01 21:59:47;;;;;;;5.77;4.20;;;;;;;;;;5055743;28;20322;-74
2021/11/01 22:16:38;;;;;;;5.80;3.80;;;;;;;;;;5055401;28;20292;-73
2021/11/01 22:19:37;;;;;;;4.17;3.70;;;;;;;;;;5053088;28;20272;-73
2021/11/01 22:22:29;;;;;;;3.87;3.47;;;;;;;;;;5056862;28;20674;-74
2021/11/01 22:25:02;;;;;;;5.17;3.83;;;;;;;;;;5054417;28;20725;-74
2021/11/01 22:33:12;;;;;;;6.30;3.93;;;;;;;;;;5035878;28;20251;-74
2021/11/01 22:41:15;;;;;;;5.70;3.93;;;;;;;;;;5053237;28;20219;-74
2021/11/01 22:44:08;;;;;;;5.07;3.70;;;;;;;;;;5055420;28;20218;-74
2021/11/01 22:46:49;;;;;;;5.80;4.10;;;;;;;;;;5055135;28;20669;-74
2021/11/01 22:57:30;;;;;;;5.53;4.47;;;;;;;;;;5056014;28;20329;-74
2021/11/01 22:59:57;;;;;;;6.87;3.93;;;;;;;;;;5055247;28;20598;-74
2021/11/01 23:02:23;;;;;;;4.90;4.40;;;;;;;;;;5054715;28;20215;-74
2021/11/01 23:04:52;;;;;;;4.97;4.33;;;;;;;;;;5053304;28;20230;-74
2021/11/01 23:32:07;;;;;;;8.23;5.40;;;;;;;;;;5053320;28;20513;-74
2021/11/01 23:34:34;;;;;;;7.27;6.13;;;;;;;;;;5052635;28;20229;-74
2021/11/01 23:37:00;;;;;;;6.80;6.17;;;;;;;;;;5054678;28;20929;-74
2021/11/01 23:39:27;;;;;;;6.37;5.77;;;;;;;;;;5053988;28;20230;-74
2021/11/01 23:41:54;;;;;;;6.40;5.80;;;;;;;;;;5055226;28;20260;-74
2021/11/01 23:44:21;;;;;;;6.83;6.13;;;;;;;;;;5053880;28;20353;-74
2021/11/01 23:46:48;;;;;;;9.90;6.77;;;;;;;;;;5052575;28;20650;-74
2021/11/01 23:49:14;;;;;;;6.93;6.23;;;;;;;;;;5053262;28;20246;-74
2021/11/01 23:51:48;;;;;;;8.23;6.70;;;;;;;;;;5052267;28;20218;-74
2021/11/01 23:54:25;;;;;;;6.97;6.27;;;;;;;;;;5054187;28;20218;-74
2021/11/01 23:56:53;;;;;;;7.37;6.60;;;;;;;;;;5051710;28;20213;-74
2021/11/01 23:59:21;;;;;;;10.93;6.87;;;;;;;;;;5053335;28;20211;-74
